AirNav   Everest Fuels
 
 1554 users online  

28WI Rutherford Airport
Arkansaw, Wisconsin, USA

GOING TO ARKANSAW?


FAA INFORMATION EFFECTIVE 22 APRIL 2021

Location

FAA Identifier: 28WI
Lat/Long: 44-36-14.8780N 092-02-47.6200W
44-36.247967N 092-02.793667W
44.6041328,-92.0465611
(estimated)
Elevation: 790 ft. / 241 m (estimated)
Variation: 02E (1985)
From city: 2 miles SW of ARKANSAW, WI
Time zone: UTC -5 (UTC -6 during Standard Time)
Zip code: 54721

Airport Operations

Airport use: Private use. Permission required prior to landing
Activation date: 03/1979
Control tower: no
ARTCC: MINNEAPOLIS CENTER
FSS: GREEN BAY FLIGHT SERVICE STATION
Attendance: CONTINUOUS
Wind indicator: yes
Segmented circle: no

Airport Communications

WX AWOS-3 at RGK (19 nm W): 119.25 (715-594-3763)
WX AWOS-3 at LUM (19 nm NE): 118.025 (715-235-5342)
  • FREQ 122.9 AVBL FOR COMMUNICATIONS WITH THE ARPT.

Nearby radio navigation aids

VOR radial/distance  VOR name  Freq  Var
EAUr230/29.9EAU CLAIRE VORTAC113.6504E

Airport Services

Runway Information

Runway 9/27

Dimensions: 3000 x 60 ft. / 914 x 18 m
Surface: turf
RUNWAY 9  RUNWAY 27
Traffic pattern: leftleft
Obstructions: pline, markedhill, 1200 ft. from runway

Airport Ownership and Management from official FAA records

Ownership: Privately-owned
Owner: NORTHERN TRAILS AVIATION
2422 27 AND 1/2 STREET
RICE LAKE, WI 54868
Phone 715-296-4018
Manager: THOM RUTHERFORD
2422 27 AND 1/2 STREET
RICE LAKE, WI 54868
Phone 715-296-4018

Airport Operational Statistics

Aircraft based on the field: 3
Single engine airplanes: 3
    

Additional Remarks

CALL FIRST
FOR CD CTC MINNEAPOLIS ARTCC AT 651-463-5588.

Instrument Procedures

There are no published instrument procedures at 28WI.

Some nearby airports with instrument procedures:

KRGK - Red Wing Regional Airport (19 nm W)
KLUM - Menomonie Municipal Airport-Score Field (19 nm NE)
3T3 - Boyceville Municipal Airport (26 nm N)
KEAU - Chippewa Valley Regional Airport (29 nm NE)
KONA - Winona Municipal Airport-Max Conrad Field (35 nm SE)
 
Loc | Ops | Rwys | IFR | FBO | Links
Com | Nav | Svcs | Stats | Notes
Area around 28WI (Rutherford Airport)
 
Road maps at: MapQuest Bing Google
 
Aerial photo
No photo
 
Sectional chart

 
Airport distance calculator
Flying to Rutherford Airport? Find the distance to fly.

From to 28WI

Sunrise and sunset
Times for 14-May-2021
 Local
(UTC-5)
 Zulu
(UTC)
Morning civil twilight05:0910:09
Sunrise05:4210:42
Sunset20:2701:27
Evening civil twilight21:0002:00

Current date and time
Zulu (UTC)  14-May-2021 15:39:44
Local (UTC-5)  14-May-2021 10:39:44
 
METAR
KRGK 
18nm W 
141515Z AUTO 21012KT 10SM CLR 19/M03 A3021 RMK AO2
KLUM 
19nm NE 
141515Z AUTO 17008KT 10SM CLR 15/M01 A3025 RMK AO2 T01511011
KEAU 
29nm NE 
141456Z 21010KT 10SM CLR 17/M01 A3025 RMK AO2 SLP245 T01671011 58001
KONA 
36nm SE 
141515Z AUTO 21004KT 10SM CLR 17/01 A3027 RMK AO2
TAF
NOTAMs
Click for the latest NOTAMs
NOTAMs are issued by the DoD/FAA and will open in a separate window not controlled by AirNav.

 

 
 

Would you like to see your business listed on this page?

 If your business provides an interesting product or service to pilots, flight crews, aircraft, or users of the Rutherford Airport, you should consider listing it here.  To start the listing process, click on the button below
 
Add a business
 

Other Pages about Rutherford Airport

Update a link
 
Copyright © AirNav, LLC. All rights reserved. Privacy Policy  Contact